Time;durP1;ratioP1;P1;durP2;ratioP2;P2;SDS_P1;SDS_P2;PMS_P1;PMS_P2;Temp;Humidity;BMP_temperature;BMP_pressure;BME280_temperature;BME280_humidity;BME280_pressure;Samples;Min_cycle;Max_cycle;Signal;HPM_P1;HPM_P2
2021/12/11 00:01:52;;;;;;;7.70;6.97;;;1.90;99.90;;;;;;4983802;28;20087;-77
2021/12/11 00:04:28;;;;;;;16.30;9.20;;;1.90;99.90;;;;;;4985203;28;20058;-78
2021/12/11 00:06:54;;;;;;;7.23;5.90;;;1.90;99.90;;;;;;4983263;28;20045;-77
2021/12/11 00:09:23;;;;;;;11.53;8.77;;;1.90;99.90;;;;;;4999449;28;20049;-77
2021/12/11 00:11:54;;;;;;;9.80;8.77;;;1.90;99.90;;;;;;5001272;28;20352;-77
2021/12/11 00:14:21;;;;;;;8.73;5.03;;;1.90;99.90;;;;;;4985246;28;20056;-77
2021/12/11 00:16:47;;;;;;;11.63;8.00;;;1.90;99.90;;;;;;4985008;28;20518;-77
2021/12/11 00:19:19;;;;;;;10.67;6.40;;;1.90;99.90;;;;;;4983520;28;20042;-77
2021/12/11 00:21:45;;;;;;;7.27;6.50;;;1.80;99.90;;;;;;4984314;28;20064;-77
2021/12/11 00:24:29;;;;;;;8.50;7.70;;;1.80;99.90;;;;;;4999426;28;20037;-77
2021/12/11 00:27:03;;;;;;;9.37;8.37;;;1.80;99.90;;;;;;4983013;28;20211;-78
2021/12/11 00:29:30;;;;;;;13.47;8.23;;;1.80;99.90;;;;;;5000795;28;20046;-77
2021/12/11 00:32:05;;;;;;;15.43;7.33;;;1.80;99.90;;;;;;5000425;28;20073;-77
2021/12/11 00:34:31;;;;;;;10.37;9.27;;;1.80;99.90;;;;;;4983277;28;20042;-77
2021/12/11 00:37:00;;;;;;;11.03;7.30;;;1.80;99.90;;;;;;5000730;28;20571;-77
2021/12/11 00:39:27;;;;;;;9.57;8.63;;;1.70;99.90;;;;;;4999932;28;20044;-77
2021/12/11 00:41:56;;;;;;;7.73;6.47;;;1.80;99.90;;;;;;5000529;28;20038;-77
2021/12/11 00:44:44;;;;;;;9.10;6.90;;;1.80;99.90;;;;;;5000467;28;20078;-77
2021/12/11 00:47:24;;;;;;;5.93;5.37;;;1.70;99.90;;;;;;5000728;28;20099;-78
2021/12/11 00:50:02;;;;;;;6.87;6.37;;;1.80;99.90;;;;;;5001186;28;20319;-77
2021/12/11 00:52:38;;;;;;;12.20;7.50;;;1.80;99.90;;;;;;4983089;28;20412;-77
2021/12/11 00:55:26;;;;;;;10.80;7.07;;;1.80;99.90;;;;;;5003251;28;20052;-77
2021/12/11 00:58:04;;;;;;;9.93;7.23;;;1.80;99.90;;;;;;4971084;28;20405;-78
2021/12/11 01:00:54;;;;;;;7.47;6.70;;;1.80;99.90;;;;;;5004904;28;20037;-77
2021/12/11 01:03:31;;;;;;;5.93;5.43;;;1.80;99.90;;;;;;4987452;28;20041;-77
2021/12/11 01:06:00;;;;;;;7.87;7.17;;;1.70;99.90;;;;;;4986932;28;20041;-78
2021/12/11 01:08:32;;;;;;;11.03;7.43;;;1.70;99.90;;;;;;4987068;28;20050;-77
2021/12/11 01:11:07;;;;;;;6.35;5.95;;;1.70;99.90;;;;;;5003134;28;20049;-77
2021/12/11 01:13:38;;;;;;;10.23;7.77;;;1.70;99.90;;;;;;5004661;28;20050;-77
2021/12/11 01:16:11;;;;;;;7.47;6.47;;;1.70;99.90;;;;;;5004719;28;20038;-77
2021/12/11 01:18:40;;;;;;;6.77;6.23;;;1.60;99.90;;;;;;5003897;28;20512;-77
2021/12/11 01:21:28;;;;;;;9.17;5.53;;;1.60;99.90;;;;;;5004017;28;20049;-77
2021/12/11 01:24:08;;;;;;;7.23;5.87;;;1.60;99.90;;;;;;4984890;28;20050;-77
2021/12/11 01:26:50;;;;;;;8.87;7.83;;;1.60;99.90;;;;;;5004254;28;20054;-77
2021/12/11 01:29:18;;;;;;;7.33;6.73;;;1.60;99.90;;;;;;4983655;28;20050;-77
2021/12/11 01:31:45;;;;;;;5.53;5.13;;;1.60;99.90;;;;;;4984548;28;20085;-77
2021/12/11 01:34:11;;;;;;;5.33;4.93;;;1.60;99.90;;;;;;4982793;28;20065;-77
2021/12/11 01:36:38;;;;;;;7.43;6.10;;;1.50;99.90;;;;;;4984249;28;20042;-77
2021/12/11 01:39:09;;;;;;;6.33;5.10;;;1.50;99.90;;;;;;4982056;28;20042;-77
2021/12/11 01:41:35;;;;;;;5.60;5.20;;;1.50;99.90;;;;;;4984547;28;20121;-77
2021/12/11 01:44:06;;;;;;;6.27;5.60;;;1.50;99.90;;;;;;4983954;28;20585;-77
2021/12/11 01:46:32;;;;;;;9.00;5.85;;;1.50;99.90;;;;;;4982979;28;20043;-78
2021/12/11 01:49:01;;;;;;;14.00;6.37;;;1.50;99.90;;;;;;4983872;28;20046;-77
2021/12/11 01:51:41;;;;;;;6.87;5.03;;;1.40;99.90;;;;;;4984088;28;20046;-77
2021/12/11 01:54:17;;;;;;;8.17;7.10;;;1.40;99.90;;;;;;4983197;28;20283;-77
2021/12/11 01:56:47;;;;;;;10.40;6.20;;;1.40;99.90;;;;;;4982848;28;20490;-77
2021/12/11 01:59:20;;;;;;;18.90;7.93;;;1.30;99.90;;;;;;4983712;28;20496;-77
2021/12/11 02:01:55;;;;;;;6.33;5.13;;;1.30;99.90;;;;;;4984285;28;20319;-77
2021/12/11 02:04:25;;;;;;;5.17;4.77;;;1.30;99.90;;;;;;4984146;28;20130;-77
2021/12/11 02:06:52;;;;;;;9.43;5.17;;;1.40;99.90;;;;;;4982181;28;20061;-77
2021/12/11 02:09:31;;;;;;;6.13;5.70;;;1.40;99.90;;;;;;4981963;28;20050;-77
2021/12/11 02:12:19;;;;;;;7.07;6.47;;;1.40;99.90;;;;;;4981552;28;20556;-77
2021/12/11 02:14:50;;;;;;;6.50;5.90;;;1.40;99.90;;;;;;4984210;28;20052;-77
2021/12/11 02:17:24;;;;;;;5.90;5.30;;;1.40;99.90;;;;;;4984335;28;20050;-77
2021/12/11 02:19:51;;;;;;;10.60;6.00;;;1.40;99.90;;;;;;4982921;28;20053;-77
2021/12/11 02:22:39;;;;;;;5.57;5.17;;;1.40;99.90;;;;;;4984225;28;20097;-77
2021/12/11 02:25:10;;;;;;;11.47;5.53;;;1.40;99.90;;;;;;4981352;28;20484;-77
2021/12/11 02:27:46;;;;;;;5.60;4.90;;;1.30;99.90;;;;;;4982128;28;20109;-77
2021/12/11 02:30:28;;;;;;;8.43;6.47;;;1.30;99.90;;;;;;5000009;28;20045;-77
2021/12/11 02:33:26;;;;;;;8.75;7.90;;;1.30;99.90;;;;;;4985483;28;20077;-77
2021/12/11 02:36:09;;;;;;;5.23;3.90;;;1.20;99.90;;;;;;4984807;28;20112;-77
2021/12/11 02:38:58;;;;;;;7.53;5.93;;;1.20;99.90;;;;;;5002211;28;20054;-76
2021/12/11 02:41:49;;;;;;;9.60;6.03;;;1.10;99.90;;;;;;4985382;28;20378;-77
2021/12/11 02:44:24;;;;;;;6.37;4.30;;;1.10;99.90;;;;;;5002326;28;20042;-77
2021/12/11 02:47:25;;;;;;;11.27;5.73;;;1.00;99.90;;;;;;5003223;28;20037;-77
2021/12/11 02:50:09;;;;;;;8.03;6.80;;;1.10;99.90;;;;;;5000745;28;20064;-77
2021/12/11 02:52:46;;;;;;;9.73;5.73;;;1.00;99.90;;;;;;4984692;28;20092;-77
2021/12/11 02:55:27;;;;;;;5.93;5.53;;;1.10;99.90;;;;;;4983989;28;20038;-77
2021/12/11 02:58:04;;;;;;;6.60;4.83;;;1.00;99.90;;;;;;4984660;28;20054;-77
2021/12/11 03:00:43;;;;;;;8.60;5.50;;;1.00;99.90;;;;;;4968773;28;20042;-77
2021/12/11 03:03:12;;;;;;;5.50;5.00;;;1.00;99.90;;;;;;5001876;28;20129;-77
2021/12/11 03:05:46;;;;;;;5.70;5.17;;;0.90;99.90;;;;;;4968579;28;20053;-77
2021/12/11 03:08:16;;;;;;;6.47;5.67;;;0.90;99.90;;;;;;5002476;28;20049;-77
2021/12/11 03:10:55;;;;;;;7.23;5.77;;;0.90;99.90;;;;;;4983722;28;20500;-77
2021/12/11 03:13:22;;;;;;;4.87;4.47;;;0.90;99.90;;;;;;4984838;28;20042;-77
2021/12/11 03:15:49;;;;;;;6.47;5.87;;;0.80;99.90;;;;;;5002673;28;20405;-77
2021/12/11 03:18:15;;;;;;;4.40;4.07;;;0.80;99.90;;;;;;5001028;28;20042;-76
2021/12/11 03:20:44;;;;;;;7.40;5.80;;;0.80;99.90;;;;;;5002585;28;20050;-77
2021/12/11 03:23:11;;;;;;;9.57;5.47;;;0.80;99.90;;;;;;5001221;28;20501;-77
2021/12/11 03:25:38;;;;;;;7.20;6.03;;;0.80;99.90;;;;;;5001577;28;20042;-77
2021/12/11 03:28:04;;;;;;;7.57;7.00;;;0.80;99.90;;;;;;4984450;28;20053;-77
2021/12/11 03:30:34;;;;;;;7.27;5.50;;;0.80;99.90;;;;;;4981081;28;20125;-77
2021/12/11 03:33:05;;;;;;;8.03;5.97;;;0.80;99.90;;;;;;4982637;28;20074;-77
2021/12/11 03:35:31;;;;;;;6.73;5.27;;;0.80;99.90;;;;;;4982096;28;20045;-77
2021/12/11 03:37:57;;;;;;;5.17;4.77;;;0.80;99.90;;;;;;4982093;28;20050;-77
2021/12/11 03:40:24;;;;;;;6.50;6.00;;;0.90;99.90;;;;;;4981274;28;20430;-77
2021/12/11 03:42:53;;;;;;;6.93;5.90;;;0.80;99.90;;;;;;4982604;28;20379;-77
2021/12/11 03:45:27;;;;;;;4.97;4.47;;;0.80;99.90;;;;;;4980859;28;20555;-77
2021/12/11 03:48:01;;;;;;;5.13;4.73;;;0.80;99.90;;;;;;4997370;28;20157;-77
2021/12/11 03:50:29;;;;;;;8.97;5.07;;;0.90;99.90;;;;;;4980328;28;20050;-77
2021/12/11 03:52:55;;;;;;;6.40;5.80;;;0.90;99.90;;;;;;4981830;28;20046;-77
2021/12/11 03:55:27;;;;;;;5.70;5.13;;;0.90;99.90;;;;;;4980807;28;20046;-77
2021/12/11 03:57:58;;;;;;;6.72;6.22;;;0.90;99.90;;;;;;4981767;28;20108;-77
2021/12/11 04:00:30;;;;;;;5.87;5.27;;;0.90;99.90;;;;;;4980983;28;20125;-77
2021/12/11 04:03:03;;;;;;;5.30;4.90;;;0.90;99.90;;;;;;4981941;28;20069;-77
2021/12/11 04:05:30;;;;;;;10.67;4.97;;;0.90;99.90;;;;;;4980644;28;20046;-77
2021/12/11 04:07:57;;;;;;;8.60;5.10;;;0.90;99.90;;;;;;4981216;28;20084;-77
2021/12/11 04:10:23;;;;;;;4.97;4.57;;;0.80;99.90;;;;;;4979297;28;20046;-77
2021/12/11 04:12:49;;;;;;;5.67;5.17;;;0.80;99.90;;;;;;4981525;28;20061;-77
2021/12/11 04:15:16;;;;;;;8.00;5.67;;;0.80;99.90;;;;;;4981326;28;20093;-77
2021/12/11 04:17:42;;;;;;;5.47;5.07;;;0.80;99.90;;;;;;4981765;28;20050;-77
2021/12/11 04:20:13;;;;;;;6.27;4.67;;;0.80;99.90;;;;;;4980103;28;20053;-77
2021/12/11 04:22:40;;;;;;;6.03;5.43;;;0.80;99.90;;;;;;4982137;28;20126;-77
2021/12/11 04:25:08;;;;;;;12.00;6.13;;;0.80;99.90;;;;;;4980290;28;20046;-77
2021/12/11 04:27:34;;;;;;;4.87;4.57;;;0.70;99.90;;;;;;4981311;28;20043;-77
2021/12/11 04:30:03;;;;;;;9.77;7.10;;;0.70;99.90;;;;;;4999014;28;20061;-77
2021/12/11 04:32:31;;;;;;;8.10;4.80;;;0.70;99.90;;;;;;5001018;28;20132;-77
2021/12/11 04:34:57;;;;;;;5.10;4.33;;;0.70;99.90;;;;;;4983009;28;20101;-77
2021/12/11 04:37:27;;;;;;;4.77;4.37;;;0.70;99.90;;;;;;5001156;28;20147;-77
2021/12/11 04:39:59;;;;;;;6.13;5.10;;;0.70;99.90;;;;;;4982311;28;20038;-77
2021/12/11 04:42:40;;;;;;;;;;;0.70;99.90;;;;;;5001251;28;20139;-76
2021/12/11 04:45:09;;;;;;;8.67;5.07;;;0.80;99.90;;;;;;5000558;28;19925;-77
2021/12/11 04:47:49;;;;;;;9.00;5.40;;;0.80;99.90;;;;;;5000911;28;20080;-77
2021/12/11 04:50:25;;;;;;;6.23;5.10;;;0.80;99.90;;;;;;5000852;28;20069;-77
2021/12/11 04:52:58;;;;;;;8.13;5.67;;;0.80;99.90;;;;;;4983216;28;20049;-77
2021/12/11 05:01:44;;;;;;;9.27;6.20;;;0.80;99.90;;;;;;4983221;28;20057;-77
2021/12/11 05:06:45;;;;;;;3.63;3.43;;;0.80;99.90;;;;;;5000727;28;20061;-77
2021/12/11 05:09:26;;;;;;;6.00;5.43;;;0.70;99.90;;;;;;4999614;28;20149;-77
2021/12/11 05:12:13;;;;;;;6.30;4.77;;;0.70;99.90;;;;;;4982462;28;20523;-77
2021/12/11 05:14:41;;;;;;;5.57;4.97;;;0.70;99.90;;;;;;5000229;28;20101;-77
2021/12/11 05:17:08;;;;;;;11.27;5.67;;;0.70;99.90;;;;;;5000253;28;20720;-77
2021/12/11 05:19:34;;;;;;;4.80;4.40;;;0.70;99.90;;;;;;4983308;28;20049;-77
2021/12/11 05:22:01;;;;;;;5.97;5.40;;;0.70;99.90;;;;;;5000023;28;20041;-77
2021/12/11 05:24:27;;;;;;;10.73;5.23;;;0.70;99.90;;;;;;4999236;28;20041;-77
2021/12/11 05:26:53;;;;;;;7.37;3.80;;;0.70;99.90;;;;;;4982396;28;20381;-77
2021/12/11 05:29:19;;;;;;;6.20;4.90;;;0.70;99.90;;;;;;5000728;28;20053;-77
2021/12/11 05:31:45;;;;;;;7.27;5.50;;;0.70;99.90;;;;;;5000458;28;20041;-76
2021/12/11 05:34:11;;;;;;;6.90;5.53;;;0.70;99.90;;;;;;5000187;28;20139;-77
2021/12/11 05:36:37;;;;;;;9.27;7.37;;;0.70;99.90;;;;;;5000143;28;20366;-77
2021/12/11 05:39:10;;;;;;;5.27;4.57;;;0.70;99.90;;;;;;4999835;28;20042;-77
2021/12/11 05:41:37;;;;;;;7.43;5.90;;;0.60;99.90;;;;;;5002802;28;20121;-77
2021/12/11 05:44:03;;;;;;;11.67;6.97;;;0.70;99.90;;;;;;5003640;28;20050;-77
2021/12/11 05:46:29;;;;;;;5.23;4.83;;;0.60;99.90;;;;;;4986157;28;20096;-77
2021/12/11 05:48:54;;;;;;;4.57;4.17;;;0.60;99.90;;;;;;5003082;28;20483;-77
2021/12/11 05:51:22;;;;;;;7.47;4.70;;;0.70;99.90;;;;;;5003863;28;20127;-77
2021/12/11 05:53:53;;;;;;;4.83;4.53;;;0.60;99.90;;;;;;5002836;28;20630;-77
2021/12/11 05:56:19;;;;;;;7.10;6.37;;;0.60;99.90;;;;;;4986326;28;20131;-77
2021/12/11 06:01:16;;;;;;;8.43;4.37;;;0.60;99.90;;;;;;4985702;28;20080;-77
2021/12/11 06:03:42;;;;;;;5.87;5.47;;;0.60;99.90;;;;;;5003542;28;20050;-77
2021/12/11 06:06:08;;;;;;;12.03;5.20;;;0.60;99.90;;;;;;5003373;28;20117;-77
2021/12/11 06:08:34;;;;;;;5.97;4.23;;;0.60;99.90;;;;;;5002906;28;20524;-77
2021/12/11 06:11:01;;;;;;;4.53;4.17;;;0.60;99.90;;;;;;5003069;28;20496;-77
2021/12/11 06:13:29;;;;;;;4.27;3.87;;;0.60;99.90;;;;;;5001962;28;20046;-77
2021/12/11 06:15:55;;;;;;;19.13;4.93;;;0.60;99.90;;;;;;5003833;28;20100;-77
2021/12/11 06:18:21;;;;;;;12.93;6.90;;;0.60;99.90;;;;;;5003104;28;20460;-77
2021/12/11 06:20:48;;;;;;;8.67;5.47;;;0.60;99.90;;;;;;5003932;28;20113;-77
2021/12/11 06:23:15;;;;;;;6.03;5.53;;;0.60;99.90;;;;;;5001931;28;20492;-78
2021/12/11 06:25:41;;;;;;;6.37;5.80;;;0.60;99.90;;;;;;5003509;28;20125;-77
2021/12/11 06:28:07;;;;;;;3.93;3.47;;;0.60;99.90;;;;;;5003329;28;20126;-77
2021/12/11 06:30:34;;;;;;;5.03;4.37;;;0.60;99.90;;;;;;4983222;28;20121;-77
2021/12/11 06:33:01;;;;;;;9.30;7.07;;;0.60;99.90;;;;;;4965467;28;20123;-77
2021/12/11 06:35:36;;;;;;;7.20;5.50;;;0.60;99.90;;;;;;4983196;28;20051;-77
2021/12/11 06:38:03;;;;;;;10.57;6.90;;;0.60;99.90;;;;;;4982367;28;20046;-77
2021/12/11 06:40:29;;;;;;;6.23;5.63;;;0.60;99.90;;;;;;4966415;28;20038;-77
2021/12/11 06:42:55;;;;;;;3.93;3.53;;;0.60;99.90;;;;;;4965314;28;20050;-77
2021/12/11 06:45:23;;;;;;;9.50;4.70;;;0.60;99.90;;;;;;4965663;28;20295;-77
2021/12/11 06:47:49;;;;;;;6.80;5.97;;;0.60;99.90;;;;;;4983126;28;20749;-77
2021/12/11 06:50:15;;;;;;;8.90;6.10;;;0.70;99.90;;;;;;4983020;28;20117;-77
2021/12/11 06:52:41;;;;;;;9.23;5.57;;;0.60;99.90;;;;;;4982680;28;20130;-77
2021/12/11 06:55:08;;;;;;;6.67;6.07;;;0.60;99.90;;;;;;4982089;28;20460;-77
2021/12/11 06:57:34;;;;;;;9.23;7.60;;;0.60;99.90;;;;;;4983287;28;20440;-77
2021/12/11 07:00:01;;;;;;;13.77;8.90;;;0.70;99.90;;;;;;4982592;28;20043;-78
2021/12/11 07:02:26;;;;;;;9.50;7.30;;;0.60;99.90;;;;;;4983154;28;20046;-77
2021/12/11 07:04:55;;;;;;;11.70;7.10;;;0.70;99.90;;;;;;4982585;28;20891;-77
2021/12/11 07:07:25;;;;;;;14.83;6.00;;;0.70;99.90;;;;;;4965315;28;20059;-77
2021/12/11 07:09:53;;;;;;;12.47;7.47;;;0.70;99.90;;;;;;4981678;28;20047;-78
2021/12/11 07:12:19;;;;;;;9.23;7.13;;;0.60;99.90;;;;;;4965215;28;20054;-77
2021/12/11 07:14:46;;;;;;;9.40;8.23;;;0.60;99.90;;;;;;4985029;28;20523;-78
2021/12/11 07:17:12;;;;;;;17.53;7.70;;;0.60;99.90;;;;;;5002756;28;20074;-77
2021/12/11 07:19:39;;;;;;;12.80;7.20;;;0.60;99.90;;;;;;5022997;28;20041;-78
2021/12/11 07:22:05;;;;;;;6.97;6.00;;;0.60;99.90;;;;;;5015109;28;20141;-78
2021/12/11 07:24:48;;;;;;;13.77;9.83;;;0.60;99.90;;;;;;4984788;28;20140;-78
2021/12/11 07:27:14;;;;;;;11.67;7.30;;;0.60;99.90;;;;;;4984934;28;20046;-79
2021/12/11 07:29:40;;;;;;;11.87;10.00;;;0.60;99.90;;;;;;4979110;28;20472;-80
2021/12/11 07:32:07;;;;;;;13.73;8.37;;;0.60;99.90;;;;;;5001630;28;20041;-80
2021/12/11 07:34:33;;;;;;;7.23;6.53;;;0.60;99.90;;;;;;4979521;28;20160;-81
2021/12/11 07:37:01;;;;;;;11.63;8.83;;;0.60;99.90;;;;;;4961279;28;20115;-79
2021/12/11 07:39:27;;;;;;;9.83;8.93;;;0.60;99.90;;;;;;5000641;28;20042;-78
2021/12/11 07:41:55;;;;;;;13.10;8.90;;;0.50;99.90;;;;;;4984347;28;20042;-78
2021/12/11 07:44:22;;;;;;;7.90;7.20;;;0.50;99.90;;;;;;5003253;28;20107;-77
2021/12/11 07:46:48;;;;;;;9.63;7.47;;;0.50;99.90;;;;;;4967712;28;20044;-78
2021/12/11 07:49:14;;;;;;;7.83;7.10;;;0.50;99.90;;;;;;5000831;28;20049;-77
2021/12/11 07:51:40;;;;;;;6.13;5.57;;;0.50;99.90;;;;;;5000560;28;20038;-77
2021/12/11 07:54:08;;;;;;;8.00;6.03;;;0.50;99.90;;;;;;4982699;28;20046;-77
2021/12/11 07:56:34;;;;;;;7.53;6.73;;;0.50;99.90;;;;;;4994641;28;20107;-78
2021/12/11 07:59:07;;;;;;;6.23;5.63;;;0.50;99.90;;;;;;5008385;28;20065;-79
2021/12/11 08:01:36;;;;;;;4.93;4.53;;;0.40;99.90;;;;;;4981551;28;20052;-84
2021/12/11 08:04:03;;;;;;;7.40;5.40;;;0.40;99.90;;;;;;5000419;28;20436;-79
2021/12/11 08:06:31;;;;;;;7.30;4.40;;;0.40;99.90;;;;;;5001221;28;20526;-76
2021/12/11 08:08:57;;;;;;;10.57;6.07;;;0.30;99.90;;;;;;5000052;28;20045;-76
2021/12/11 08:11:28;;;;;;;6.63;5.43;;;0.30;99.90;;;;;;4984297;28;20556;-76
2021/12/11 08:13:55;;;;;;;5.90;4.53;;;0.30;99.90;;;;;;4984152;28;20129;-76
2021/12/11 08:16:26;;;;;;;6.33;5.83;;;0.40;99.90;;;;;;4999260;28;20042;-75
2021/12/11 08:18:53;;;;;;;7.17;5.73;;;0.30;99.90;;;;;;4982498;28;20053;-76
2021/12/11 08:21:20;;;;;;;7.80;4.50;;;0.30;99.90;;;;;;4980159;28;20120;-76
2021/12/11 08:23:49;;;;;;;3.90;3.43;;;0.30;99.90;;;;;;5001276;28;20045;-76
2021/12/11 08:26:16;;;;;;;7.70;5.53;;;0.30;99.90;;;;;;4994348;28;20049;-77
2021/12/11 08:28:42;;;;;;;6.03;4.37;;;0.40;99.90;;;;;;4996840;28;20088;-76
2021/12/11 08:31:09;;;;;;;5.80;5.07;;;0.40;99.90;;;;;;5006410;28;20046;-76
2021/12/11 08:33:35;;;;;;;5.83;5.20;;;0.40;99.90;;;;;;5007788;28;20038;-76
2021/12/11 08:36:01;;;;;;;3.73;3.23;;;0.40;99.90;;;;;;4985370;28;20056;-76
2021/12/11 08:38:28;;;;;;;6.03;4.23;;;0.40;99.90;;;;;;5002996;28;20046;-76
2021/12/11 08:40:57;;;;;;;5.80;5.30;;;0.50;99.90;;;;;;5001535;28;20112;-76
2021/12/11 08:43:24;;;;;;;8.33;3.63;;;0.50;99.90;;;;;;4994253;28;20053;-78
2021/12/11 08:46:07;;;;;;;4.17;3.77;;;0.50;99.90;;;;;;4996460;28;20055;-77
2021/12/11 08:48:34;;;;;;;8.70;5.30;;;0.60;99.90;;;;;;4972261;28;20084;-80
2021/12/11 08:51:09;;;;;;;7.67;4.00;;;0.60;99.90;;;;;;5003785;28;20061;-75
2021/12/11 08:53:36;;;;;;;4.37;3.30;;;0.60;99.90;;;;;;5004398;28;20133;-78
2021/12/11 08:56:04;;;;;;;6.63;6.07;;;0.70;99.90;;;;;;4982404;28;20100;-78
2021/12/11 08:58:30;;;;;;;4.70;3.80;;;0.70;99.90;;;;;;4981969;28;20596;-77
2021/12/11 09:01:05;;;;;;;5.57;5.13;;;0.70;99.90;;;;;;5001249;28;20128;-77
2021/12/11 09:03:41;;;;;;;4.93;4.57;;;0.70;99.90;;;;;;4983698;28;20057;-76
2021/12/11 09:06:26;;;;;;;6.03;5.20;;;0.70;99.90;;;;;;4984445;28;20128;-76
2021/12/11 09:09:05;;;;;;;14.07;6.67;;;0.70;99.90;;;;;;5000364;28;20045;-77
2021/12/11 09:11:39;;;;;;;6.73;6.03;;;0.70;99.90;;;;;;5002047;28;20152;-77
2021/12/11 09:14:17;;;;;;;5.47;3.90;;;0.80;99.90;;;;;;5007979;28;20140;-77
2021/12/11 09:16:51;;;;;;;8.90;6.70;;;0.80;99.90;;;;;;5021172;28;20516;-77
2021/12/11 09:19:26;;;;;;;10.10;7.13;;;0.80;99.90;;;;;;5007467;28;20108;-77
2021/12/11 09:21:57;;;;;;;3.97;3.57;;;0.90;99.90;;;;;;5025135;28;20095;-77
2021/12/11 09:24:36;;;;;;;5.03;4.63;;;0.90;99.90;;;;;;5006159;28;20046;-77
2021/12/11 09:27:13;;;;;;;4.00;3.43;;;0.90;99.90;;;;;;5007066;28;20140;-78
2021/12/11 09:29:38;;;;;;;7.50;4.73;;;1.00;99.90;;;;;;5007528;28;20077;-80
2021/12/11 09:32:22;;;;;;;11.80;5.83;;;1.00;99.90;;;;;;4987218;28;20057;-82
2021/12/11 09:34:57;;;;;;;8.13;5.83;;;1.00;99.90;;;;;;5004957;28;20508;-78
2021/12/11 09:37:22;;;;;;;6.30;4.57;;;1.10;99.90;;;;;;4982624;28;20057;-85
2021/12/11 09:39:55;;;;;;;4.93;3.93;;;1.10;99.90;;;;;;5003736;28;20042;-85
2021/12/11 09:42:20;;;;;;;11.02;7.28;;;1.10;99.90;;;;;;4971697;28;20046;-83
2021/12/11 09:44:56;;;;;;;7.67;7.03;;;1.10;99.90;;;;;;4984501;28;20076;-81
2021/12/11 09:47:36;;;;;;;13.30;6.93;;;1.20;99.90;;;;;;4978831;28;20092;-83
2021/12/11 09:50:15;;;;;;;6.53;5.47;;;1.20;99.90;;;;;;5008454;28;20096;-80
2021/12/11 09:52:45;;;;;;;6.50;5.70;;;1.20;99.90;;;;;;5002508;28;20328;-84
2021/12/11 09:55:18;;;;;;;5.53;4.67;;;1.20;99.90;;;;;;4987068;28;20053;-78
2021/12/11 09:57:50;;;;;;;7.73;6.23;;;1.30;99.90;;;;;;5001553;28;20436;-77
2021/12/11 10:00:43;;;;;;;5.80;4.37;;;1.30;99.90;;;;;;4983226;28;20046;-77
2021/12/11 10:03:13;;;;;;;8.03;5.27;;;1.30;99.90;;;;;;4986375;28;20787;-77
2021/12/11 10:05:49;;;;;;;9.17;6.80;;;1.30;99.90;;;;;;5001597;28;20046;-77
2021/12/11 10:08:36;;;;;;;14.00;6.33;;;1.30;99.90;;;;;;5002940;28;20070;-77
2021/12/11 10:11:11;;;;;;;9.47;4.90;;;1.40;99.90;;;;;;5003046;28;20515;-76
2021/12/11 10:13:50;;;;;;;7.83;6.93;;;1.40;99.90;;;;;;4988956;28;20080;-75
2021/12/11 10:16:32;;;;;;;10.77;6.67;;;1.50;99.90;;;;;;5014898;28;20496;-76
2021/12/11 10:18:58;;;;;;;8.23;5.82;;;1.50;99.90;;;;;;4982750;28;20050;-76
2021/12/11 10:21:43;;;;;;;7.20;6.53;;;1.60;99.90;;;;;;4983318;28;20061;-76
2021/12/11 10:24:12;;;;;;;12.83;6.87;;;1.60;99.90;;;;;;5001265;28;20646;-76
2021/12/11 10:26:38;;;;;;;8.20;6.67;;;1.60;99.90;;;;;;5003369;28;20038;-77
2021/12/11 10:29:09;;;;;;;7.20;6.60;;;1.70;99.90;;;;;;4986280;28;20057;-77
2021/12/11 10:31:41;;;;;;;12.60;6.63;;;1.70;99.90;;;;;;5006571;28;20052;-77
2021/12/11 10:34:10;;;;;;;11.60;9.75;;;1.70;99.90;;;;;;4995840;28;20041;-77
2021/12/11 10:36:41;;;;;;;10.10;7.80;;;1.70;99.90;;;;;;4983596;28;20497;-76
2021/12/11 10:39:13;;;;;;;10.17;7.40;;;1.80;99.90;;;;;;5001597;28;20116;-77
2021/12/11 10:41:39;;;;;;;11.05;9.98;;;1.80;99.90;;;;;;4986382;28;20128;-76
2021/12/11 10:44:15;;;;;;;9.70;8.10;;;1.80;99.90;;;;;;5007360;28;20045;-77
2021/12/11 10:46:46;;;;;;;7.73;6.93;;;1.80;99.90;;;;;;4985886;28;20045;-76
2021/12/11 10:49:13;;;;;;;7.77;7.20;;;1.90;99.90;;;;;;5004873;28;20034;-76
2021/12/11 10:51:53;;;;;;;10.17;6.30;;;1.90;99.90;;;;;;5005552;28;20052;-76
2021/12/11 10:54:19;;;;;;;19.20;7.23;;;1.90;99.90;;;;;;4985151;28;20524;-76
2021/12/11 10:56:46;;;;;;;8.53;6.10;;;1.90;99.90;;;;;;5018716;28;20090;-76
2021/12/11 10:59:17;;;;;;;8.73;7.87;;;2.00;99.90;;;;;;4996835;28;20396;-76
2021/12/11 11:01:48;;;;;;;9.35;8.55;;;2.00;99.90;;;;;;4986062;28;20057;-77
2021/12/11 11:04:21;;;;;;;8.93;7.20;;;2.00;99.90;;;;;;5002884;28;20084;-76
2021/12/11 11:06:47;;;;;;;;;;;2.00;99.90;;;;;;5004079;28;20038;-76
2021/12/11 11:09:16;;;;;;;6.63;6.03;;;2.00;99.90;;;;;;5019392;28;20046;-75
2021/12/11 11:11:42;;;;;;;6.30;5.77;;;2.00;99.90;;;;;;4995921;28;20413;-77
2021/12/11 11:14:09;;;;;;;9.77;8.93;;;2.00;99.90;;;;;;5002580;28;20054;-77
2021/12/11 11:16:38;;;;;;;8.23;7.53;;;2.00;99.90;;;;;;5014266;28;20535;-77
2021/12/11 11:19:04;;;;;;;7.37;6.67;;;2.00;99.90;;;;;;5023074;28;20099;-76
2021/12/11 11:21:33;;;;;;;16.53;6.83;;;2.00;99.90;;;;;;4993873;28;20046;-76
2021/12/11 11:24:00;;;;;;;10.23;9.23;;;2.10;99.90;;;;;;4982765;28;20053;-76
2021/12/11 11:26:30;;;;;;;9.60;8.57;;;2.10;99.90;;;;;;4983135;28;20078;-76
2021/12/11 11:28:57;;;;;;;12.37;8.47;;;2.10;99.90;;;;;;4988903;28;20354;-76
2021/12/11 11:31:28;;;;;;;8.53;7.73;;;2.10;99.90;;;;;;4984369;28;20049;-77
2021/12/11 11:33:54;;;;;;;5.73;5.23;;;2.10;99.90;;;;;;5003180;28;20041;-74
2021/12/11 11:36:25;;;;;;;6.50;5.90;;;2.10;99.90;;;;;;4985509;28;20050;-74
2021/12/11 11:38:55;;;;;;;6.77;6.13;;;2.10;99.90;;;;;;5001388;28;20460;-75
2021/12/11 11:41:31;;;;;;;7.33;6.37;;;2.20;99.90;;;;;;4985813;28;20052;-75
2021/12/11 11:43:58;;;;;;;12.57;7.43;;;2.20;99.90;;;;;;5002242;28;20228;-74
2021/12/11 11:46:24;;;;;;;8.80;7.83;;;2.20;99.90;;;;;;5001730;28;20100;-73
2021/12/11 11:48:54;;;;;;;10.10;7.10;;;2.30;99.90;;;;;;5002966;28;20033;-73
2021/12/11 11:51:28;;;;;;;9.13;6.93;;;2.40;99.90;;;;;;5002006;28;20450;-79
2021/12/11 11:53:55;;;;;;;14.30;10.40;;;2.40;99.90;;;;;;4982198;28;20057;-75
2021/12/11 11:56:26;;;;;;;8.80;8.00;;;2.40;99.90;;;;;;4992682;28;20049;-76
2021/12/11 11:58:52;;;;;;;7.77;7.07;;;2.40;99.90;;;;;;5001034;28;20034;-75
2021/12/11 12:01:22;;;;;;;8.10;6.77;;;2.40;99.90;;;;;;4999895;28;20065;-74
2021/12/11 12:03:49;;;;;;;13.63;7.10;;;2.40;99.90;;;;;;4999845;28;20104;-73
2021/12/11 12:06:22;;;;;;;8.63;7.60;;;2.50;99.90;;;;;;5001369;28;20037;-73
2021/12/11 12:08:48;;;;;;;16.00;8.50;;;2.50;99.90;;;;;;4980577;28;20046;-74
2021/12/11 12:11:14;;;;;;;8.90;7.77;;;2.60;99.90;;;;;;4992432;28;20496;-73
2021/12/11 12:13:40;;;;;;;10.13;9.03;;;2.60;99.90;;;;;;4981391;28;20061;-73
2021/12/11 12:16:10;;;;;;;8.80;7.93;;;2.60;99.90;;;;;;4978087;28;20076;-74
2021/12/11 12:18:36;;;;;;;16.27;10.60;;;2.60;99.90;;;;;;4984157;28;20570;-73
2021/12/11 12:21:04;;;;;;;15.77;8.30;;;2.70;99.90;;;;;;5002123;28;20053;-73
2021/12/11 12:23:32;;;;;;;8.20;7.40;;;2.70;99.90;;;;;;4999852;28;20036;-73
2021/12/11 12:26:01;;;;;;;17.67;9.53;;;2.70;99.90;;;;;;4983554;28;20054;-73
2021/12/11 12:28:29;;;;;;;12.77;8.60;;;2.70;99.90;;;;;;4984178;28;20065;-73
2021/12/11 12:30:59;;;;;;;9.73;6.73;;;2.70;99.90;;;;;;5001276;28;20128;-73
2021/12/11 12:33:27;;;;;;;7.77;7.17;;;2.80;99.90;;;;;;4983713;28;20057;-73
2021/12/11 12:35:52;;;;;;;9.00;8.10;;;2.80;99.90;;;;;;5000709;28;20061;-73
2021/12/11 12:38:20;;;;;;;8.33;7.07;;;2.80;99.90;;;;;;5000695;28;20246;-73
2021/12/11 12:40:59;;;;;;;9.13;8.27;;;2.90;99.90;;;;;;4967787;28;20540;-73
2021/12/11 12:43:54;;;;;;;13.23;9.50;;;2.90;99.90;;;;;;4983812;28;20042;-73
2021/12/11 12:46:27;;;;;;;12.60;9.77;;;2.90;99.90;;;;;;4983822;28;20489;-73
2021/12/11 12:48:52;;;;;;;14.77;7.50;;;3.00;99.90;;;;;;4983396;28;20064;-73
2021/12/11 12:51:19;;;;;;;10.80;9.53;;;3.00;99.90;;;;;;4988205;28;20046;-73
2021/12/11 12:53:45;;;;;;;8.10;6.80;;;3.00;99.90;;;;;;4986749;28;20050;-73
2021/12/11 12:56:23;;;;;;;35.17;11.00;;;3.00;99.90;;;;;;5004307;28;20420;-73
2021/12/11 12:59:05;;;;;;;11.10;5.60;;;3.10;99.90;;;;;;4995093;28;20038;-73
2021/12/11 13:01:47;;;;;;;12.10;6.93;;;3.00;99.90;;;;;;4986940;28;20046;-74
2021/12/11 13:04:16;;;;;;;6.68;6.03;;;3.10;99.90;;;;;;5000835;28;20132;-73
2021/12/11 13:06:51;;;;;;;6.33;5.77;;;3.10;99.90;;;;;;5004455;28;20041;-73
2021/12/11 13:09:30;;;;;;;21.40;7.20;;;3.00;99.90;;;;;;4973638;28;20054;-73
2021/12/11 13:12:07;;;;;;;9.07;7.93;;;3.10;99.90;;;;;;5000416;28;20132;-73
2021/12/11 13:14:35;;;;;;;10.70;8.00;;;3.10;99.90;;;;;;5004427;28;20042;-73
2021/12/11 13:17:05;;;;;;;5.43;4.90;;;3.10;99.90;;;;;;4986031;28;20126;-73
2021/12/11 13:19:37;;;;;;;9.17;6.37;;;3.10;99.90;;;;;;5004846;28;20053;-73
2021/12/11 13:22:37;;;;;;;8.40;6.45;;;3.10;99.90;;;;;;5003599;28;20113;-73
2021/12/11 13:25:14;;;;;;;5.53;4.67;;;3.20;99.90;;;;;;4998321;28;20065;-75
2021/12/11 13:27:41;;;;;;;6.57;6.07;;;3.20;99.90;;;;;;5004372;28;20567;-74